sensor_id;sensor_type;location;lat;lon;timestamp;P1;durP1;ratioP1;P2;durP2;ratioP2
6862;SDS011;3470;48.738;9.616;2022-12-07T00:03:56;14.67;;;12.17;;
6862;SDS011;3470;48.738;9.616;2022-12-07T00:06:28;17.87;;;13.27;;
6862;SDS011;3470;48.738;9.616;2022-12-07T00:08:54;16.17;;;13.37;;
6862;SDS011;3470;48.738;9.616;2022-12-07T00:11:20;16.43;;;12.60;;
6862;SDS011;3470;48.738;9.616;2022-12-07T00:13:47;14.77;;;12.43;;
6862;SDS011;3470;48.738;9.616;2022-12-07T00:16:17;16.67;;;13.33;;
6862;SDS011;3470;48.738;9.616;2022-12-07T00:18:44;18.63;;;14.23;;
6862;SDS011;3470;48.738;9.616;2022-12-07T00:21:11;15.03;;;13.40;;
6862;SDS011;3470;48.738;9.616;2022-12-07T00:23:41;15.53;;;13.13;;
6862;SDS011;3470;48.738;9.616;2022-12-07T00:26:12;16.40;;;14.20;;
6862;SDS011;3470;48.738;9.616;2022-12-07T00:28:46;17.33;;;14.20;;
6862;SDS011;3470;48.738;9.616;2022-12-07T00:31:16;19.97;;;14.70;;
6862;SDS011;3470;48.738;9.616;2022-12-07T00:33:44;20.50;;;15.17;;
6862;SDS011;3470;48.738;9.616;2022-12-07T00:36:11;16.33;;;14.57;;
6862;SDS011;3470;48.738;9.616;2022-12-07T00:38:39;15.83;;;13.60;;
6862;SDS011;3470;48.738;9.616;2022-12-07T00:41:15;18.70;;;14.10;;
6862;SDS011;3470;48.738;9.616;2022-12-07T00:43:42;18.27;;;12.70;;
6862;SDS011;3470;48.738;9.616;2022-12-07T00:46:09;15.13;;;13.00;;
6862;SDS011;3470;48.738;9.616;2022-12-07T00:48:36;16.20;;;13.00;;
6862;SDS011;3470;48.738;9.616;2022-12-07T00:51:01;16.47;;;13.30;;
6862;SDS011;3470;48.738;9.616;2022-12-07T00:53:28;17.37;;;12.93;;
6862;SDS011;3470;48.738;9.616;2022-12-07T00:55:53;17.03;;;13.90;;
6862;SDS011;3470;48.738;9.616;2022-12-07T00:58:20;15.70;;;13.27;;
6862;SDS011;3470;48.738;9.616;2022-12-07T01:00:46;15.43;;;13.57;;
6862;SDS011;3470;48.738;9.616;2022-12-07T01:03:12;16.07;;;13.00;;
6862;SDS011;3470;48.738;9.616;2022-12-07T01:05:39;17.17;;;13.27;;
6862;SDS011;3470;48.738;9.616;2022-12-07T01:08:05;15.67;;;13.27;;
6862;SDS011;3470;48.738;9.616;2022-12-07T01:10:31;15.97;;;13.33;;
6862;SDS011;3470;48.738;9.616;2022-12-07T01:12:57;17.50;;;14.30;;
6862;SDS011;3470;48.738;9.616;2022-12-07T01:15:24;17.17;;;13.47;;
6862;SDS011;3470;48.738;9.616;2022-12-07T01:17:50;16.37;;;13.47;;
6862;SDS011;3470;48.738;9.616;2022-12-07T01:20:15;16.17;;;12.60;;
6862;SDS011;3470;48.738;9.616;2022-12-07T01:22:42;15.73;;;13.40;;
6862;SDS011;3470;48.738;9.616;2022-12-07T01:25:08;17.40;;;14.03;;
6862;SDS011;3470;48.738;9.616;2022-12-07T01:27:36;17.90;;;13.57;;
6862;SDS011;3470;48.738;9.616;2022-12-07T01:30:02;19.20;;;13.70;;
6862;SDS011;3470;48.738;9.616;2022-12-07T01:32:29;15.87;;;13.60;;
6862;SDS011;3470;48.738;9.616;2022-12-07T01:34:55;17.53;;;13.73;;
6862;SDS011;3470;48.738;9.616;2022-12-07T01:37:21;19.77;;;13.90;;
6862;SDS011;3470;48.738;9.616;2022-12-07T01:39:50;18.30;;;14.63;;
6862;SDS011;3470;48.738;9.616;2022-12-07T01:42:16;16.77;;;13.43;;
6862;SDS011;3470;48.738;9.616;2022-12-07T01:47:50;14.67;;;12.40;;
6862;SDS011;3470;48.738;9.616;2022-12-07T01:50:20;15.40;;;12.03;;
6862;SDS011;3470;48.738;9.616;2022-12-07T01:52:49;18.47;;;13.50;;
6862;SDS011;3470;48.738;9.616;2022-12-07T01:55:18;16.30;;;13.13;;
6862;SDS011;3470;48.738;9.616;2022-12-07T01:57:46;17.37;;;13.57;;
6862;SDS011;3470;48.738;9.616;2022-12-07T02:00:14;15.33;;;12.93;;
6862;SDS011;3470;48.738;9.616;2022-12-07T02:02:48;17.13;;;12.87;;
6862;SDS011;3470;48.738;9.616;2022-12-07T02:05:19;16.00;;;14.03;;
6862;SDS011;3470;48.738;9.616;2022-12-07T02:07:45;17.40;;;13.77;;
6862;SDS011;3470;48.738;9.616;2022-12-07T02:10:16;15.57;;;12.40;;
6862;SDS011;3470;48.738;9.616;2022-12-07T02:12:43;16.10;;;12.83;;
6862;SDS011;3470;48.738;9.616;2022-12-07T02:15:12;14.87;;;12.47;;
6862;SDS011;3470;48.738;9.616;2022-12-07T02:20:28;17.30;;;13.30;;
6862;SDS011;3470;48.738;9.616;2022-12-07T02:31:18;20.30;;;14.63;;
6862;SDS011;3470;48.738;9.616;2022-12-07T02:33:50;16.60;;;13.43;;
6862;SDS011;3470;48.738;9.616;2022-12-07T02:36:25;18.57;;;13.87;;
6862;SDS011;3470;48.738;9.616;2022-12-07T02:39:02;17.17;;;13.63;;
6862;SDS011;3470;48.738;9.616;2022-12-07T02:41:46;16.70;;;13.63;;
6862;SDS011;3470;48.738;9.616;2022-12-07T02:44:15;17.77;;;13.60;;
6862;SDS011;3470;48.738;9.616;2022-12-07T02:46:47;19.50;;;13.97;;
6862;SDS011;3470;48.738;9.616;2022-12-07T02:49:17;19.10;;;13.77;;
6862;SDS011;3470;48.738;9.616;2022-12-07T02:51:45;17.77;;;13.80;;
6862;SDS011;3470;48.738;9.616;2022-12-07T02:54:12;17.70;;;13.67;;
6862;SDS011;3470;48.738;9.616;2022-12-07T03:02:10;20.03;;;14.30;;
6862;SDS011;3470;48.738;9.616;2022-12-07T03:07:53;18.67;;;13.20;;
6862;SDS011;3470;48.738;9.616;2022-12-07T03:10:40;17.40;;;13.40;;
6862;SDS011;3470;48.738;9.616;2022-12-07T03:21:17;16.87;;;13.13;;
6862;SDS011;3470;48.738;9.616;2022-12-07T03:23:48;18.43;;;13.43;;
6862;SDS011;3470;48.738;9.616;2022-12-07T03:26:19;21.00;;;13.90;;
6862;SDS011;3470;48.738;9.616;2022-12-07T03:28:48;18.60;;;13.53;;
6862;SDS011;3470;48.738;9.616;2022-12-07T03:31:19;20.67;;;14.20;;
6862;SDS011;3470;48.738;9.616;2022-12-07T03:34:08;22.27;;;14.33;;
6862;SDS011;3470;48.738;9.616;2022-12-07T03:39:34;19.53;;;13.83;;
6862;SDS011;3470;48.738;9.616;2022-12-07T03:42:05;20.10;;;14.03;;
6862;SDS011;3470;48.738;9.616;2022-12-07T03:44:32;19.77;;;13.90;;
6862;SDS011;3470;48.738;9.616;2022-12-07T03:47:07;22.53;;;14.83;;
6862;SDS011;3470;48.738;9.616;2022-12-07T03:52:24;21.87;;;14.60;;
6862;SDS011;3470;48.738;9.616;2022-12-07T03:55:11;22.50;;;14.73;;
6862;SDS011;3470;48.738;9.616;2022-12-07T03:57:44;20.60;;;14.07;;
6862;SDS011;3470;48.738;9.616;2022-12-07T04:00:13;18.20;;;13.20;;
6862;SDS011;3470;48.738;9.616;2022-12-07T04:02:39;21.50;;;14.57;;
6862;SDS011;3470;48.738;9.616;2022-12-07T04:05:06;21.20;;;15.13;;
6862;SDS011;3470;48.738;9.616;2022-12-07T04:07:32;21.30;;;15.03;;
6862;SDS011;3470;48.738;9.616;2022-12-07T04:09:58;23.37;;;16.67;;
6862;SDS011;3470;48.738;9.616;2022-12-07T04:12:24;24.53;;;16.13;;
6862;SDS011;3470;48.738;9.616;2022-12-07T04:14:50;23.57;;;16.83;;
6862;SDS011;3470;48.738;9.616;2022-12-07T04:17:15;22.60;;;16.17;;
6862;SDS011;3470;48.738;9.616;2022-12-07T04:19:41;22.90;;;16.40;;
6862;SDS011;3470;48.738;9.616;2022-12-07T04:22:07;25.43;;;16.97;;
6862;SDS011;3470;48.738;9.616;2022-12-07T04:24:32;24.30;;;16.20;;
6862;SDS011;3470;48.738;9.616;2022-12-07T04:26:59;21.67;;;16.10;;
6862;SDS011;3470;48.738;9.616;2022-12-07T04:29:25;24.37;;;16.50;;
6862;SDS011;3470;48.738;9.616;2022-12-07T04:31:51;23.27;;;15.87;;
6862;SDS011;3470;48.738;9.616;2022-12-07T04:34:17;21.20;;;15.73;;
6862;SDS011;3470;48.738;9.616;2022-12-07T04:36:43;24.80;;;17.33;;
6862;SDS011;3470;48.738;9.616;2022-12-07T04:39:26;23.00;;;16.57;;
6862;SDS011;3470;48.738;9.616;2022-12-07T04:41:56;25.93;;;16.57;;
6862;SDS011;3470;48.738;9.616;2022-12-07T04:44:23;26.60;;;17.70;;
6862;SDS011;3470;48.738;9.616;2022-12-07T04:46:50;26.60;;;17.53;;
6862;SDS011;3470;48.738;9.616;2022-12-07T04:49:16;26.43;;;18.10;;
6862;SDS011;3470;48.738;9.616;2022-12-07T04:51:43;28.70;;;17.70;;
6862;SDS011;3470;48.738;9.616;2022-12-07T04:54:09;28.60;;;18.17;;
6862;SDS011;3470;48.738;9.616;2022-12-07T04:56:35;26.97;;;16.63;;
6862;SDS011;3470;48.738;9.616;2022-12-07T04:59:01;27.40;;;17.63;;
6862;SDS011;3470;48.738;9.616;2022-12-07T05:01:27;26.87;;;18.10;;
6862;SDS011;3470;48.738;9.616;2022-12-07T05:03:52;29.30;;;19.50;;
6862;SDS011;3470;48.738;9.616;2022-12-07T05:06:18;29.93;;;19.43;;
6862;SDS011;3470;48.738;9.616;2022-12-07T05:08:44;27.83;;;17.57;;
6862;SDS011;3470;48.738;9.616;2022-12-07T05:11:10;33.40;;;19.50;;
6862;SDS011;3470;48.738;9.616;2022-12-07T05:13:59;33.30;;;19.53;;
6862;SDS011;3470;48.738;9.616;2022-12-07T05:16:25;33.53;;;19.83;;
6862;SDS011;3470;48.738;9.616;2022-12-07T05:18:51;32.47;;;18.70;;
6862;SDS011;3470;48.738;9.616;2022-12-07T05:21:17;33.77;;;18.73;;
6862;SDS011;3470;48.738;9.616;2022-12-07T05:23:42;35.43;;;20.87;;
6862;SDS011;3470;48.738;9.616;2022-12-07T05:26:08;31.77;;;19.03;;
6862;SDS011;3470;48.738;9.616;2022-12-07T05:28:33;35.10;;;20.67;;
6862;SDS011;3470;48.738;9.616;2022-12-07T05:30:59;36.30;;;21.73;;
6862;SDS011;3470;48.738;9.616;2022-12-07T05:33:25;39.73;;;20.53;;
6862;SDS011;3470;48.738;9.616;2022-12-07T05:35:50;36.63;;;21.03;;
6862;SDS011;3470;48.738;9.616;2022-12-07T05:38:16;38.90;;;20.90;;
6862;SDS011;3470;48.738;9.616;2022-12-07T05:40:41;34.20;;;21.00;;
6862;SDS011;3470;48.738;9.616;2022-12-07T05:43:07;35.90;;;21.50;;
6862;SDS011;3470;48.738;9.616;2022-12-07T05:45:33;39.40;;;20.90;;
6862;SDS011;3470;48.738;9.616;2022-12-07T05:47:58;36.13;;;21.50;;
6862;SDS011;3470;48.738;9.616;2022-12-07T05:50:24;33.97;;;19.73;;
6862;SDS011;3470;48.738;9.616;2022-12-07T05:52:49;33.63;;;19.70;;
6862;SDS011;3470;48.738;9.616;2022-12-07T05:55:15;35.97;;;20.97;;
6862;SDS011;3470;48.738;9.616;2022-12-07T05:57:40;33.53;;;19.50;;
6862;SDS011;3470;48.738;9.616;2022-12-07T06:00:26;36.43;;;20.40;;
6862;SDS011;3470;48.738;9.616;2022-12-07T06:02:52;35.57;;;21.47;;
6862;SDS011;3470;48.738;9.616;2022-12-07T06:05:17;41.60;;;25.93;;
6862;SDS011;3470;48.738;9.616;2022-12-07T06:07:43;54.67;;;32.27;;
6862;SDS011;3470;48.738;9.616;2022-12-07T06:10:08;45.60;;;26.97;;
6862;SDS011;3470;48.738;9.616;2022-12-07T06:12:34;35.83;;;20.63;;
6862;SDS011;3470;48.738;9.616;2022-12-07T06:15:00;35.57;;;19.63;;
6862;SDS011;3470;48.738;9.616;2022-12-07T06:17:26;33.20;;;19.27;;
6862;SDS011;3470;48.738;9.616;2022-12-07T06:19:51;31.40;;;19.57;;
6862;SDS011;3470;48.738;9.616;2022-12-07T06:22:17;32.77;;;19.40;;
6862;SDS011;3470;48.738;9.616;2022-12-07T06:24:43;32.33;;;18.57;;
6862;SDS011;3470;48.738;9.616;2022-12-07T06:27:09;30.07;;;18.37;;
6862;SDS011;3470;48.738;9.616;2022-12-07T06:29:35;32.60;;;18.73;;
6862;SDS011;3470;48.738;9.616;2022-12-07T06:32:01;37.37;;;19.47;;
6862;SDS011;3470;48.738;9.616;2022-12-07T06:34:27;34.37;;;18.73;;
6862;SDS011;3470;48.738;9.616;2022-12-07T06:36:53;30.33;;;17.83;;
6862;SDS011;3470;48.738;9.616;2022-12-07T06:39:26;28.90;;;17.23;;
6862;SDS011;3470;48.738;9.616;2022-12-07T06:41:53;38.33;;;22.00;;
6862;SDS011;3470;48.738;9.616;2022-12-07T06:44:19;48.57;;;30.43;;
6862;SDS011;3470;48.738;9.616;2022-12-07T06:46:46;35.10;;;20.80;;
6862;SDS011;3470;48.738;9.616;2022-12-07T06:49:12;29.90;;;18.83;;
6862;SDS011;3470;48.738;9.616;2022-12-07T06:51:41;33.53;;;18.83;;
6862;SDS011;3470;48.738;9.616;2022-12-07T06:54:08;32.50;;;20.10;;
6862;SDS011;3470;48.738;9.616;2022-12-07T06:56:34;31.17;;;19.03;;
6862;SDS011;3470;48.738;9.616;2022-12-07T06:59:00;28.10;;;18.10;;
6862;SDS011;3470;48.738;9.616;2022-12-07T07:01:26;28.43;;;17.53;;
6862;SDS011;3470;48.738;9.616;2022-12-07T07:03:51;34.30;;;19.47;;
6862;SDS011;3470;48.738;9.616;2022-12-07T07:06:17;35.30;;;19.80;;
6862;SDS011;3470;48.738;9.616;2022-12-07T07:08:43;32.20;;;21.33;;
6862;SDS011;3470;48.738;9.616;2022-12-07T07:11:09;33.70;;;21.17;;
6862;SDS011;3470;48.738;9.616;2022-12-07T07:13:35;32.80;;;21.13;;
6862;SDS011;3470;48.738;9.616;2022-12-07T07:16:01;29.03;;;18.10;;
6862;SDS011;3470;48.738;9.616;2022-12-07T07:18:26;29.17;;;19.17;;
6862;SDS011;3470;48.738;9.616;2022-12-07T07:20:52;29.90;;;18.63;;
6862;SDS011;3470;48.738;9.616;2022-12-07T07:23:18;26.63;;;17.03;;
6862;SDS011;3470;48.738;9.616;2022-12-07T07:25:45;26.00;;;17.87;;
6862;SDS011;3470;48.738;9.616;2022-12-07T07:28:11;28.80;;;17.53;;
6862;SDS011;3470;48.738;9.616;2022-12-07T07:30:37;26.80;;;18.30;;
6862;SDS011;3470;48.738;9.616;2022-12-07T07:33:03;28.83;;;18.93;;
6862;SDS011;3470;48.738;9.616;2022-12-07T07:35:29;28.40;;;18.40;;
6862;SDS011;3470;48.738;9.616;2022-12-07T07:37:56;25.00;;;18.13;;
6862;SDS011;3470;48.738;9.616;2022-12-07T07:40:22;27.10;;;16.50;;
6862;SDS011;3470;48.738;9.616;2022-12-07T07:42:51;25.07;;;17.57;;
6862;SDS011;3470;48.738;9.616;2022-12-07T07:45:18;28.90;;;17.33;;
6862;SDS011;3470;48.738;9.616;2022-12-07T07:47:45;26.80;;;17.10;;
6862;SDS011;3470;48.738;9.616;2022-12-07T07:50:11;26.83;;;18.20;;
6862;SDS011;3470;48.738;9.616;2022-12-07T07:52:37;24.33;;;16.80;;
6862;SDS011;3470;48.738;9.616;2022-12-07T07:55:03;25.50;;;17.70;;
6862;SDS011;3470;48.738;9.616;2022-12-07T07:57:28;29.17;;;17.53;;
6862;SDS011;3470;48.738;9.616;2022-12-07T07:59:54;25.70;;;18.10;;
6862;SDS011;3470;48.738;9.616;2022-12-07T08:02:20;29.43;;;18.83;;
6862;SDS011;3470;48.738;9.616;2022-12-07T08:04:46;26.83;;;17.37;;
6862;SDS011;3470;48.738;9.616;2022-12-07T08:07:11;28.87;;;17.63;;
6862;SDS011;3470;48.738;9.616;2022-12-07T08:09:37;27.43;;;17.77;;
6862;SDS011;3470;48.738;9.616;2022-12-07T08:12:03;26.30;;;17.10;;
6862;SDS011;3470;48.738;9.616;2022-12-07T08:14:29;26.03;;;16.57;;
6862;SDS011;3470;48.738;9.616;2022-12-07T08:16:55;24.10;;;16.57;;
6862;SDS011;3470;48.738;9.616;2022-12-07T08:19:21;24.13;;;16.60;;
6862;SDS011;3470;48.738;9.616;2022-12-07T08:21:47;26.63;;;17.50;;
6862;SDS011;3470;48.738;9.616;2022-12-07T08:24:13;25.93;;;18.13;;
6862;SDS011;3470;48.738;9.616;2022-12-07T08:26:39;24.70;;;17.03;;
6862;SDS011;3470;48.738;9.616;2022-12-07T08:29:04;32.30;;;18.67;;
6862;SDS011;3470;48.738;9.616;2022-12-07T08:31:30;24.23;;;17.80;;
6862;SDS011;3470;48.738;9.616;2022-12-07T08:33:56;24.43;;;17.77;;
6862;SDS011;3470;48.738;9.616;2022-12-07T08:36:22;24.20;;;17.00;;
6862;SDS011;3470;48.738;9.616;2022-12-07T08:38:48;21.47;;;16.27;;
6862;SDS011;3470;48.738;9.616;2022-12-07T08:41:14;22.20;;;16.70;;
6862;SDS011;3470;48.738;9.616;2022-12-07T08:43:40;21.63;;;15.43;;
6862;SDS011;3470;48.738;9.616;2022-12-07T08:48:32;18.83;;;14.00;;
6862;SDS011;3470;48.738;9.616;2022-12-07T08:51:00;18.30;;;13.93;;
6862;SDS011;3470;48.738;9.616;2022-12-07T08:53:27;22.27;;;14.10;;
6862;SDS011;3470;48.738;9.616;2022-12-07T08:55:53;18.57;;;13.87;;
6862;SDS011;3470;48.738;9.616;2022-12-07T08:58:20;20.23;;;13.70;;
6862;SDS011;3470;48.738;9.616;2022-12-07T09:00:46;18.83;;;13.83;;
6862;SDS011;3470;48.738;9.616;2022-12-07T09:03:11;18.47;;;13.60;;
6862;SDS011;3470;48.738;9.616;2022-12-07T09:05:37;17.43;;;12.67;;
6862;SDS011;3470;48.738;9.616;2022-12-07T09:08:03;19.47;;;14.37;;
6862;SDS011;3470;48.738;9.616;2022-12-07T09:10:29;15.97;;;12.63;;
6862;SDS011;3470;48.738;9.616;2022-12-07T09:12:54;15.47;;;11.60;;
6862;SDS011;3470;48.738;9.616;2022-12-07T09:15:20;14.07;;;11.47;;
6862;SDS011;3470;48.738;9.616;2022-12-07T09:17:45;19.70;;;12.40;;
6862;SDS011;3470;48.738;9.616;2022-12-07T09:20:11;16.17;;;12.63;;
6862;SDS011;3470;48.738;9.616;2022-12-07T09:22:37;16.57;;;12.23;;
6862;SDS011;3470;48.738;9.616;2022-12-07T09:25:03;14.67;;;11.50;;
6862;SDS011;3470;48.738;9.616;2022-12-07T09:27:29;15.83;;;12.13;;
6862;SDS011;3470;48.738;9.616;2022-12-07T09:29:55;13.47;;;10.87;;
6862;SDS011;3470;48.738;9.616;2022-12-07T09:32:21;14.60;;;11.57;;
6862;SDS011;3470;48.738;9.616;2022-12-07T09:34:47;15.50;;;11.00;;
6862;SDS011;3470;48.738;9.616;2022-12-07T09:37:13;13.37;;;10.47;;
6862;SDS011;3470;48.738;9.616;2022-12-07T09:39:39;14.73;;;11.13;;
6862;SDS011;3470;48.738;9.616;2022-12-07T09:42:06;14.83;;;11.57;;
6862;SDS011;3470;48.738;9.616;2022-12-07T09:44:32;11.97;;;10.27;;
6862;SDS011;3470;48.738;9.616;2022-12-07T09:46:59;15.17;;;11.70;;
6862;SDS011;3470;48.738;9.616;2022-12-07T09:49:27;13.47;;;10.20;;
6862;SDS011;3470;48.738;9.616;2022-12-07T09:54:34;14.93;;;11.60;;
6862;SDS011;3470;48.738;9.616;2022-12-07T09:57:04;12.03;;;10.07;;
6862;SDS011;3470;48.738;9.616;2022-12-07T09:59:30;13.03;;;9.90;;
6862;SDS011;3470;48.738;9.616;2022-12-07T10:01:56;13.50;;;10.20;;
6862;SDS011;3470;48.738;9.616;2022-12-07T10:04:49;13.97;;;10.33;;
6862;SDS011;3470;48.738;9.616;2022-12-07T10:07:15;11.70;;;8.97;;
6862;SDS011;3470;48.738;9.616;2022-12-07T10:09:41;12.10;;;9.83;;
6862;SDS011;3470;48.738;9.616;2022-12-07T10:12:08;9.67;;;8.10;;
6862;SDS011;3470;48.738;9.616;2022-12-07T10:14:55;10.57;;;7.93;;
6862;SDS011;3470;48.738;9.616;2022-12-07T10:22:57;9.20;;;8.00;;
6862;SDS011;3470;48.738;9.616;2022-12-07T10:25:30;8.53;;;7.63;;
6862;SDS011;3470;48.738;9.616;2022-12-07T10:28:19;11.70;;;8.00;;
6862;SDS011;3470;48.738;9.616;2022-12-07T10:30:57;10.00;;;8.13;;
6862;SDS011;3470;48.738;9.616;2022-12-07T10:33:38;9.73;;;7.13;;
6862;SDS011;3470;48.738;9.616;2022-12-07T13:02:38;8.33;;;7.20;;
6862;SDS011;3470;48.738;9.616;2022-12-07T13:05:21;9.60;;;6.90;;
6862;SDS011;3470;48.738;9.616;2022-12-07T13:07:50;11.37;;;8.30;;
6862;SDS011;3470;48.738;9.616;2022-12-07T13:10:36;12.97;;;8.23;;
6862;SDS011;3470;48.738;9.616;2022-12-07T13:29:15;10.53;;;7.40;;
6862;SDS011;3470;48.738;9.616;2022-12-07T13:31:43;9.07;;;6.93;;
6862;SDS011;3470;48.738;9.616;2022-12-07T13:34:28;11.80;;;9.30;;
6862;SDS011;3470;48.738;9.616;2022-12-07T13:36:57;10.77;;;8.30;;
6862;SDS011;3470;48.738;9.616;2022-12-07T13:39:27;12.53;;;7.20;;
6862;SDS011;3470;48.738;9.616;2022-12-07T13:41:57;10.63;;;8.43;;
6862;SDS011;3470;48.738;9.616;2022-12-07T13:44:24;10.13;;;7.67;;
6862;SDS011;3470;48.738;9.616;2022-12-07T13:49:32;8.67;;;6.90;;
6862;SDS011;3470;48.738;9.616;2022-12-07T13:52:16;12.90;;;9.13;;
6862;SDS011;3470;48.738;9.616;2022-12-07T13:54:47;10.07;;;7.77;;
6862;SDS011;3470;48.738;9.616;2022-12-07T13:57:20;18.30;;;6.63;;
6862;SDS011;3470;48.738;9.616;2022-12-07T13:59:47;9.10;;;6.93;;
6862;SDS011;3470;48.738;9.616;2022-12-07T14:02:18;8.37;;;6.43;;
6862;SDS011;3470;48.738;9.616;2022-12-07T14:05:06;7.43;;;6.63;;
6862;SDS011;3470;48.738;9.616;2022-12-07T14:08:02;9.63;;;7.60;;
6862;SDS011;3470;48.738;9.616;2022-12-07T14:12:56;11.23;;;8.87;;
6862;SDS011;3470;48.738;9.616;2022-12-07T14:15:24;11.33;;;9.37;;
6862;SDS011;3470;48.738;9.616;2022-12-07T14:17:54;9.13;;;7.50;;
6862;SDS011;3470;48.738;9.616;2022-12-07T14:23:03;12.57;;;9.13;;
6862;SDS011;3470;48.738;9.616;2022-12-07T14:25:53;10.70;;;8.33;;
6862;SDS011;3470;48.738;9.616;2022-12-07T14:28:29;8.83;;;7.40;;
6862;SDS011;3470;48.738;9.616;2022-12-07T14:30:57;8.37;;;6.60;;
6862;SDS011;3470;48.738;9.616;2022-12-07T14:33:23;9.03;;;6.20;;
6862;SDS011;3470;48.738;9.616;2022-12-07T14:35:49;7.33;;;6.30;;
6862;SDS011;3470;48.738;9.616;2022-12-07T14:38:19;10.13;;;7.60;;
6862;SDS011;3470;48.738;9.616;2022-12-07T14:40:45;9.50;;;7.23;;
6862;SDS011;3470;48.738;9.616;2022-12-07T14:43:11;8.73;;;7.23;;
6862;SDS011;3470;48.738;9.616;2022-12-07T14:45:38;8.70;;;7.63;;
6862;SDS011;3470;48.738;9.616;2022-12-07T14:48:07;13.67;;;8.77;;
6862;SDS011;3470;48.738;9.616;2022-12-07T14:50:39;12.87;;;10.80;;
6862;SDS011;3470;48.738;9.616;2022-12-07T14:53:15;12.50;;;8.60;;
6862;SDS011;3470;48.738;9.616;2022-12-07T14:55:43;9.93;;;7.87;;
6862;SDS011;3470;48.738;9.616;2022-12-07T14:58:12;9.97;;;8.23;;
6862;SDS011;3470;48.738;9.616;2022-12-07T15:00:38;11.50;;;8.43;;
6862;SDS011;3470;48.738;9.616;2022-12-07T15:03:04;19.37;;;13.40;;
6862;SDS011;3470;48.738;9.616;2022-12-07T15:05:30;13.10;;;9.60;;
6862;SDS011;3470;48.738;9.616;2022-12-07T15:07:55;11.43;;;8.10;;
6862;SDS011;3470;48.738;9.616;2022-12-07T15:10:22;9.63;;;7.83;;
6862;SDS011;3470;48.738;9.616;2022-12-07T15:12:54;9.97;;;8.63;;
6862;SDS011;3470;48.738;9.616;2022-12-07T15:15:19;9.20;;;7.57;;
6862;SDS011;3470;48.738;9.616;2022-12-07T15:17:45;11.57;;;8.87;;
6862;SDS011;3470;48.738;9.616;2022-12-07T15:20:12;12.97;;;9.57;;
6862;SDS011;3470;48.738;9.616;2022-12-07T15:22:39;18.77;;;12.97;;
6862;SDS011;3470;48.738;9.616;2022-12-07T15:25:05;19.73;;;13.27;;
6862;SDS011;3470;48.738;9.616;2022-12-07T15:27:31;21.53;;;13.37;;
6862;SDS011;3470;48.738;9.616;2022-12-07T15:29:56;22.90;;;13.07;;
6862;SDS011;3470;48.738;9.616;2022-12-07T15:32:22;11.50;;;9.27;;
6862;SDS011;3470;48.738;9.616;2022-12-07T15:34:48;11.37;;;8.70;;
6862;SDS011;3470;48.738;9.616;2022-12-07T15:37:14;10.90;;;8.50;;
6862;SDS011;3470;48.738;9.616;2022-12-07T15:39:40;11.67;;;7.90;;
6862;SDS011;3470;48.738;9.616;2022-12-07T15:42:06;14.07;;;10.17;;
6862;SDS011;3470;48.738;9.616;2022-12-07T15:44:31;14.93;;;10.87;;
6862;SDS011;3470;48.738;9.616;2022-12-07T15:47:16;12.90;;;10.30;;
6862;SDS011;3470;48.738;9.616;2022-12-07T15:49:42;12.73;;;9.30;;
6862;SDS011;3470;48.738;9.616;2022-12-07T15:52:08;11.37;;;8.93;;
6862;SDS011;3470;48.738;9.616;2022-12-07T15:54:33;12.40;;;8.60;;
6862;SDS011;3470;48.738;9.616;2022-12-07T15:56:59;9.87;;;8.27;;
6862;SDS011;3470;48.738;9.616;2022-12-07T15:59:26;11.27;;;8.77;;
6862;SDS011;3470;48.738;9.616;2022-12-07T16:01:52;15.37;;;8.30;;
6862;SDS011;3470;48.738;9.616;2022-12-07T16:04:18;12.23;;;9.17;;
6862;SDS011;3470;48.738;9.616;2022-12-07T16:06:44;13.67;;;9.10;;
6862;SDS011;3470;48.738;9.616;2022-12-07T16:09:09;12.50;;;10.17;;
6862;SDS011;3470;48.738;9.616;2022-12-07T16:11:35;16.83;;;11.67;;
6862;SDS011;3470;48.738;9.616;2022-12-07T16:14:01;17.40;;;13.20;;
6862;SDS011;3470;48.738;9.616;2022-12-07T16:16:27;16.90;;;11.73;;
6862;SDS011;3470;48.738;9.616;2022-12-07T16:18:53;17.07;;;12.20;;
6862;SDS011;3470;48.738;9.616;2022-12-07T16:21:19;16.03;;;13.00;;
6862;SDS011;3470;48.738;9.616;2022-12-07T16:23:45;14.47;;;10.00;;
6862;SDS011;3470;48.738;9.616;2022-12-07T16:26:12;15.23;;;10.53;;
6862;SDS011;3470;48.738;9.616;2022-12-07T16:28:39;13.30;;;10.07;;
6862;SDS011;3470;48.738;9.616;2022-12-07T16:31:06;13.97;;;9.80;;
6862;SDS011;3470;48.738;9.616;2022-12-07T16:33:35;12.63;;;9.67;;
6862;SDS011;3470;48.738;9.616;2022-12-07T16:36:02;12.23;;;9.87;;
6862;SDS011;3470;48.738;9.616;2022-12-07T16:38:29;15.30;;;10.33;;
6862;SDS011;3470;48.738;9.616;2022-12-07T16:40:54;13.87;;;10.73;;
6862;SDS011;3470;48.738;9.616;2022-12-07T16:43:20;13.57;;;9.97;;
6862;SDS011;3470;48.738;9.616;2022-12-07T16:45:46;15.70;;;10.53;;
6862;SDS011;3470;48.738;9.616;2022-12-07T16:48:13;16.07;;;11.33;;
6862;SDS011;3470;48.738;9.616;2022-12-07T16:50:40;17.77;;;11.40;;
6862;SDS011;3470;48.738;9.616;2022-12-07T16:53:07;16.30;;;11.90;;
6862;SDS011;3470;48.738;9.616;2022-12-07T16:55:39;15.17;;;11.77;;
6862;SDS011;3470;48.738;9.616;2022-12-07T16:58:06;18.30;;;12.40;;
6862;SDS011;3470;48.738;9.616;2022-12-07T17:00:32;20.93;;;13.73;;
6862;SDS011;3470;48.738;9.616;2022-12-07T17:02:59;18.07;;;13.23;;
6862;SDS011;3470;48.738;9.616;2022-12-07T17:05:25;18.40;;;12.77;;
6862;SDS011;3470;48.738;9.616;2022-12-07T17:07:53;18.93;;;13.10;;
6862;SDS011;3470;48.738;9.616;2022-12-07T17:10:18;27.70;;;17.40;;
6862;SDS011;3470;48.738;9.616;2022-12-07T17:12:44;25.13;;;15.60;;
6862;SDS011;3470;48.738;9.616;2022-12-07T17:15:10;18.57;;;13.17;;
6862;SDS011;3470;48.738;9.616;2022-12-07T17:17:42;17.43;;;13.23;;
6862;SDS011;3470;48.738;9.616;2022-12-07T17:20:09;15.77;;;12.20;;
6862;SDS011;3470;48.738;9.616;2022-12-07T17:22:35;17.03;;;12.90;;
6862;SDS011;3470;48.738;9.616;2022-12-07T17:25:01;15.53;;;11.87;;
6862;SDS011;3470;48.738;9.616;2022-12-07T17:27:27;17.73;;;12.47;;
6862;SDS011;3470;48.738;9.616;2022-12-07T17:29:53;17.33;;;12.67;;
6862;SDS011;3470;48.738;9.616;2022-12-07T17:32:18;20.03;;;13.77;;
6862;SDS011;3470;48.738;9.616;2022-12-07T17:34:44;17.20;;;12.20;;
6862;SDS011;3470;48.738;9.616;2022-12-07T17:37:09;15.50;;;11.23;;
6862;SDS011;3470;48.738;9.616;2022-12-07T17:39:35;15.90;;;11.70;;
6862;SDS011;3470;48.738;9.616;2022-12-07T17:42:01;14.20;;;11.00;;
6862;SDS011;3470;48.738;9.616;2022-12-07T17:44:45;15.73;;;11.67;;
6862;SDS011;3470;48.738;9.616;2022-12-07T17:47:10;16.10;;;12.17;;
6862;SDS011;3470;48.738;9.616;2022-12-07T17:49:36;19.07;;;12.47;;
6862;SDS011;3470;48.738;9.616;2022-12-07T17:52:01;17.63;;;11.67;;
6862;SDS011;3470;48.738;9.616;2022-12-07T17:54:45;14.50;;;11.70;;
6862;SDS011;3470;48.738;9.616;2022-12-07T17:57:11;20.40;;;14.00;;
6862;SDS011;3470;48.738;9.616;2022-12-07T17:59:37;22.73;;;16.73;;
6862;SDS011;3470;48.738;9.616;2022-12-07T18:02:03;19.63;;;13.33;;
6862;SDS011;3470;48.738;9.616;2022-12-07T18:04:28;19.60;;;13.73;;
6862;SDS011;3470;48.738;9.616;2022-12-07T18:06:54;20.90;;;13.70;;
6862;SDS011;3470;48.738;9.616;2022-12-07T18:09:19;17.90;;;12.47;;
6862;SDS011;3470;48.738;9.616;2022-12-07T18:11:47;17.40;;;12.60;;
6862;SDS011;3470;48.738;9.616;2022-12-07T18:14:13;21.37;;;13.97;;
6862;SDS011;3470;48.738;9.616;2022-12-07T18:16:38;26.63;;;15.30;;
6862;SDS011;3470;48.738;9.616;2022-12-07T18:19:04;20.50;;;12.57;;
6862;SDS011;3470;48.738;9.616;2022-12-07T18:21:32;21.43;;;13.97;;
6862;SDS011;3470;48.738;9.616;2022-12-07T18:23:59;17.63;;;12.70;;
6862;SDS011;3470;48.738;9.616;2022-12-07T18:26:26;18.50;;;11.43;;
6862;SDS011;3470;48.738;9.616;2022-12-07T18:28:53;19.00;;;11.90;;
6862;SDS011;3470;48.738;9.616;2022-12-07T18:31:19;17.33;;;11.27;;
6862;SDS011;3470;48.738;9.616;2022-12-07T18:33:45;19.73;;;12.63;;
6862;SDS011;3470;48.738;9.616;2022-12-07T18:36:12;28.83;;;14.63;;